createdAt,value
2023-03-30T00:01:32.544Z,5.47
2023-03-30T00:04:18.688Z,5.55
2023-03-30T00:07:05.445Z,5.40
2023-03-30T00:09:50.610Z,6.43
2023-03-30T00:12:36.843Z,7.90
2023-03-30T00:15:23.789Z,5.30
2023-03-30T00:18:09.704Z,5.03
2023-03-30T00:20:55.487Z,4.10
2023-03-30T00:23:41.060Z,4.60
2023-03-30T00:26:27.072Z,5.80
2023-03-30T00:29:12.460Z,5.20
2023-03-30T00:31:58.061Z,4.45
2023-03-30T00:34:43.442Z,5.25
2023-03-30T00:37:29.706Z,5.10
2023-03-30T00:40:24.489Z,5.90
2023-03-30T00:43:11.972Z,4.32
2023-03-30T00:45:57.913Z,4.18
2023-03-30T00:48:45.064Z,5.50
2023-03-30T00:51:34.305Z,5.93
2023-03-30T00:54:20.589Z,4.55
2023-03-30T00:57:07.475Z,5.00
2023-03-30T00:59:53.582Z,5.05
2023-03-30T01:02:49.182Z,6.07
2023-03-30T01:05:37.320Z,6.05
2023-03-30T01:08:24.150Z,6.88
2023-03-30T01:11:10.030Z,5.82
2023-03-30T01:14:00.366Z,4.22
2023-03-30T01:17:03.051Z,6.07
2023-03-30T01:23:38.924Z,10.75
2023-03-30T01:26:39.605Z,4.60
2023-03-30T01:29:44.387Z,4.90
2023-03-30T01:33:03.739Z,5.60
2023-03-30T01:36:10.870Z,8.32
2023-03-30T01:39:15.699Z,7.68
2023-03-30T01:42:27.701Z,7.07
2023-03-30T01:45:27.521Z,8.07
2023-03-30T01:48:19.596Z,6.55
2023-03-30T01:54:04.162Z,6.18
2023-03-30T01:57:00.178Z,6.18
2023-03-30T02:00:08.321Z,8.10
2023-03-30T02:03:02.620Z,4.82
2023-03-30T02:05:53.534Z,3.15
2023-03-30T02:08:41.021Z,3.38
2023-03-30T02:11:28.678Z,5.53
2023-03-30T02:14:16.957Z,3.58
2023-03-30T02:17:11.242Z,4.68
2023-03-30T02:19:58.018Z,5.22
2023-03-30T02:22:44.090Z,7.35
2023-03-30T02:25:29.558Z,6.32
2023-03-30T02:28:15.369Z,6.05
2023-03-30T02:31:01.656Z,4.88
2023-03-30T02:34:14.034Z,5.82
2023-03-30T02:37:32.566Z,6.18
2023-03-30T02:40:28.393Z,6.93
2023-03-30T02:43:55.330Z,6.45
2023-03-30T02:47:00.206Z,6.53
2023-03-30T02:50:02.274Z,6.85
2023-03-30T02:52:54.131Z,8.07
2023-03-30T02:56:03.778Z,9.30
2023-03-30T02:59:13.924Z,7.85
2023-03-30T03:02:07.529Z,11.70
2023-03-30T03:04:54.590Z,8.45
2023-03-30T03:07:56.356Z,6.43
2023-03-30T03:10:41.570Z,9.07
2023-03-30T03:13:27.899Z,8.52
2023-03-30T03:16:14.571Z,7.95
2023-03-30T03:19:16.128Z,5.72
2023-03-30T03:22:02.699Z,8.13
2023-03-30T03:24:51.779Z,6.50
2023-03-30T03:27:51.746Z,8.35
2023-03-30T03:30:41.756Z,7.40
2023-03-30T03:33:33.642Z,6.18
2023-03-30T03:36:40.422Z,6.22
2023-03-30T03:39:26.983Z,6.50
2023-03-30T03:42:19.734Z,9.63
2023-03-30T03:45:16.758Z,9.45
2023-03-30T03:48:16.190Z,4.93
2023-03-30T03:51:05.594Z,6.55
2023-03-30T03:53:53.881Z,9.52
2023-03-30T03:56:39.268Z,6.78
2023-03-30T03:59:24.834Z,6.50
2023-03-30T04:02:10.120Z,7.70
2023-03-30T04:04:55.647Z,4.43
2023-03-30T04:07:41.459Z,5.97
2023-03-30T04:10:27.725Z,5.80
2023-03-30T04:13:39.799Z,4.68
2023-03-30T04:16:35.189Z,7.00
2023-03-30T04:19:41.820Z,7.00
2023-03-30T04:22:50.009Z,6.75
2023-03-30T04:25:39.758Z,7.57
2023-03-30T04:29:00.138Z,7.35
2023-03-30T04:32:02.767Z,7.25
2023-03-30T04:35:19.111Z,7.53
2023-03-30T04:38:24.579Z,11.38
2023-03-30T04:41:35.906Z,9.13
2023-03-30T04:44:49.281Z,8.18
2023-03-30T04:48:03.195Z,10.10
2023-03-30T04:51:17.781Z,8.05
2023-03-30T04:54:31.320Z,11.82
2023-03-30T04:57:37.409Z,7.53
2023-03-30T05:00:48.984Z,11.57
2023-03-30T05:03:53.368Z,10.48
2023-03-30T05:06:55.359Z,9.85
2023-03-30T05:09:59.060Z,13.55
2023-03-30T05:12:44.389Z,11.50
2023-03-30T05:15:34.981Z,12.27
2023-03-30T05:18:40.076Z,9.95
2023-03-30T05:21:33.569Z,9.82
2023-03-30T05:24:48.187Z,13.32
2023-03-30T05:27:52.555Z,10.82
2023-03-30T05:31:00.600Z,14.20
2023-03-30T05:34:08.856Z,10.93
2023-03-30T05:36:54.675Z,13.52
2023-03-30T05:39:58.560Z,16.95
2023-03-30T05:43:14.888Z,11.50
2023-03-30T05:46:27.829Z,10.90
2023-03-30T05:49:22.098Z,13.15
2023-03-30T05:52:23.791Z,14.27
2023-03-30T05:55:21.842Z,11.45
2023-03-30T05:58:35.724Z,17.83
2023-03-30T06:01:34.285Z,12.15
2023-03-30T06:04:20.632Z,14.80
2023-03-30T06:07:07.996Z,13.20
2023-03-30T06:09:54.095Z,17.50
2023-03-30T06:12:46.069Z,17.08
2023-03-30T06:15:52.069Z,18.55
2023-03-30T06:18:39.735Z,17.83
2023-03-30T06:21:29.806Z,12.43
2023-03-30T06:24:38.452Z,18.58
2023-03-30T06:27:23.722Z,15.77
2023-03-30T06:30:09.909Z,23.33
2023-03-30T06:32:57.361Z,16.55
2023-03-30T06:35:49.557Z,10.07
2023-03-30T06:38:37.556Z,18.95
2023-03-30T06:41:22.904Z,16.25
2023-03-30T06:44:14.683Z,13.73
2023-03-30T06:47:00.902Z,17.15
2023-03-30T06:49:46.431Z,24.80
2023-03-30T06:52:52.253Z,13.77
2023-03-30T06:55:39.355Z,15.98
2023-03-30T06:58:26.311Z,19.95
2023-03-30T07:01:13.451Z,23.55
2023-03-30T07:04:19.075Z,22.38
2023-03-30T07:07:33.713Z,19.45
2023-03-30T07:10:19.214Z,17.25
2023-03-30T07:13:04.787Z,22.20
2023-03-30T07:15:52.360Z,23.30
2023-03-30T07:18:37.679Z,21.17
2023-03-30T07:21:23.588Z,16.15
2023-03-30T07:24:09.013Z,19.85
2023-03-30T07:26:54.971Z,18.52
2023-03-30T07:29:41.289Z,18.48
2023-03-30T07:32:27.383Z,21.40
2023-03-30T07:35:13.157Z,19.58
2023-03-30T07:38:03.172Z,23.50
2023-03-30T07:40:52.774Z,26.50
2023-03-30T07:43:43.102Z,16.25
2023-03-30T07:46:29.334Z,20.55
2023-03-30T07:49:15.424Z,18.90
2023-03-30T07:52:01.381Z,16.90
2023-03-30T07:54:56.367Z,19.85
2023-03-30T07:57:57.171Z,15.93
2023-03-30T08:00:42.710Z,28.83
2023-03-30T08:03:48.328Z,25.65
2023-03-30T08:06:34.186Z,15.55
2023-03-30T08:09:19.944Z,16.30
2023-03-30T08:12:06.838Z,14.88
2023-03-30T08:14:51.944Z,15.27
2023-03-30T08:17:37.574Z,20.65
2023-03-30T08:20:23.169Z,39.85
2023-03-30T08:23:10.402Z,21.52
2023-03-30T08:25:59.718Z,19.50
2023-03-30T08:28:45.349Z,20.63
2023-03-30T08:31:34.262Z,24.08
2023-03-30T08:34:19.860Z,24.63
2023-03-30T08:37:06.179Z,15.85
2023-03-30T08:39:51.219Z,20.20
2023-03-30T08:42:57.887Z,18.17
2023-03-30T08:45:43.964Z,17.40
2023-03-30T08:48:35.422Z,19.00
2023-03-30T08:51:28.742Z,18.42
2023-03-30T08:54:20.204Z,15.55
2023-03-30T08:57:38.104Z,20.70
2023-03-30T09:00:52.796Z,15.05
2023-03-30T09:03:45.171Z,13.35
2023-03-30T09:09:30.069Z,21.10
2023-03-30T09:12:23.840Z,17.08
2023-03-30T09:15:25.957Z,16.30
2023-03-30T09:18:46.392Z,10.65
2023-03-30T09:21:32.603Z,18.88
2023-03-30T09:24:25.722Z,18.85
2023-03-30T09:27:25.129Z,12.73
2023-03-30T09:30:22.834Z,28.90
2023-03-30T09:33:27.226Z,17.33
2023-03-30T09:36:41.696Z,39.78
2023-03-30T09:39:31.033Z,19.48
2023-03-30T09:42:21.985Z,20.77
2023-03-30T09:45:29.728Z,30.77
2023-03-30T09:48:16.914Z,22.13
2023-03-30T09:51:02.288Z,26.10
2023-03-30T09:53:50.570Z,16.58
2023-03-30T09:56:40.213Z,27.60
2023-03-30T09:59:37.864Z,17.23
2023-03-30T10:02:26.273Z,37.72
2023-03-30T10:05:17.815Z,24.45
2023-03-30T10:08:19.725Z,29.42
2023-03-30T10:11:06.784Z,24.05
2023-03-30T10:13:52.421Z,24.23
2023-03-30T10:16:37.790Z,24.77
2023-03-30T10:19:24.773Z,23.33
2023-03-30T10:22:18.842Z,20.92
2023-03-30T10:25:17.746Z,24.40
2023-03-30T10:28:06.238Z,23.10
2023-03-30T10:30:56.796Z,22.08
2023-03-30T10:33:44.283Z,23.33
2023-03-30T10:36:34.215Z,56.22
2023-03-30T10:39:28.495Z,28.98
2023-03-30T10:42:22.092Z,22.85
2023-03-30T10:45:07.747Z,25.00
2023-03-30T10:48:04.771Z,33.10
2023-03-30T10:51:17.943Z,19.88
2023-03-30T10:54:09.320Z,25.15
2023-03-30T10:57:01.079Z,26.98
2023-03-30T11:00:12.896Z,25.75
2023-03-30T11:03:14.934Z,26.40
2023-03-30T11:06:13.038Z,29.75
2023-03-30T11:09:03.456Z,31.25
2023-03-30T11:11:52.447Z,20.77
2023-03-30T11:14:44.800Z,36.40
2023-03-30T11:20:27.800Z,31.40
2023-03-30T11:23:40.776Z,29.15
2023-03-30T11:26:42.165Z,26.65
2023-03-30T11:29:37.687Z,28.98
2023-03-30T11:32:41.758Z,36.05
2023-03-30T11:35:43.557Z,25.48
2023-03-30T11:38:51.914Z,22.10
2023-03-30T11:41:44.101Z,26.15
2023-03-30T11:44:29.735Z,27.55
2023-03-30T11:47:45.875Z,33.47
2023-03-30T11:51:16.900Z,28.40
2023-03-30T11:54:38.576Z,24.85
2023-03-30T11:57:36.494Z,28.27
2023-03-30T12:00:51.689Z,29.55
2023-03-30T12:03:42.221Z,31.40
2023-03-30T12:06:32.784Z,39.30
2023-03-30T12:09:28.069Z,21.38
2023-03-30T12:12:19.165Z,24.60
2023-03-30T12:15:26.497Z,21.45
2023-03-30T12:18:36.178Z,27.58
2023-03-30T12:21:38.339Z,20.77
2023-03-30T12:25:01.198Z,28.52
2023-03-30T12:28:09.407Z,31.63
2023-03-30T12:30:58.143Z,46.15
2023-03-30T12:33:49.275Z,22.48
2023-03-30T12:36:46.479Z,37.97
2023-03-30T12:39:44.922Z,22.92
2023-03-30T12:42:46.794Z,21.42
2023-03-30T12:45:33.797Z,29.15
2023-03-30T12:49:06.155Z,32.67
2023-03-30T12:52:17.824Z,24.40
2023-03-30T12:55:21.972Z,18.08
2023-03-30T12:58:46.774Z,24.30
2023-03-30T13:01:51.021Z,15.27
2023-03-30T13:04:39.799Z,17.90
2023-03-30T13:07:29.292Z,18.63
2023-03-30T13:10:30.415Z,20.50
2023-03-30T13:13:41.076Z,24.40
2023-03-30T13:16:51.282Z,21.35
2023-03-30T13:19:40.934Z,17.25
2023-03-30T13:22:30.309Z,19.90
2023-03-30T13:28:45.622Z,25.05
2023-03-30T13:31:33.869Z,30.25
2023-03-30T13:34:37.668Z,24.70
2023-03-30T13:37:45.394Z,23.17
2023-03-30T13:40:48.505Z,30.83
2023-03-30T13:44:12.505Z,20.45
2023-03-30T13:47:56.935Z,18.17
2023-03-30T13:50:51.996Z,24.98
2023-03-30T13:53:44.487Z,18.50
2023-03-30T13:59:20.085Z,25.08
2023-03-30T14:02:07.211Z,27.50
2023-03-30T14:04:52.599Z,26.98
2023-03-30T14:07:43.642Z,23.58
2023-03-30T14:10:29.277Z,18.90
2023-03-30T14:13:17.907Z,21.83
2023-03-30T14:16:04.353Z,18.13
2023-03-30T14:18:51.470Z,25.73
2023-03-30T14:21:38.613Z,21.38
2023-03-30T14:24:30.178Z,20.20
2023-03-30T14:27:16.130Z,19.03
2023-03-30T14:30:01.633Z,16.85
2023-03-30T14:32:47.580Z,19.83
2023-03-30T14:35:33.622Z,30.10
2023-03-30T14:38:25.478Z,19.17
2023-03-30T14:41:23.729Z,26.90
2023-03-30T14:44:13.505Z,22.13
2023-03-30T14:46:59.141Z,21.27
2023-03-30T14:49:47.304Z,20.40
2023-03-30T14:52:41.346Z,23.58
2023-03-30T14:55:28.148Z,20.27
2023-03-30T14:58:15.102Z,16.05
2023-03-30T15:01:06.091Z,19.73
2023-03-30T15:03:53.465Z,23.27
2023-03-30T15:06:39.088Z,23.60
2023-03-30T15:09:24.900Z,19.35
2023-03-30T15:12:29.289Z,29.67
2023-03-30T15:15:16.882Z,24.42
2023-03-30T15:18:04.304Z,23.15
2023-03-30T15:20:49.929Z,24.63
2023-03-30T15:23:39.127Z,20.38
2023-03-30T15:26:26.962Z,33.63
2023-03-30T15:29:14.561Z,30.75
2023-03-30T15:32:22.091Z,22.60
2023-03-30T15:35:16.603Z,20.52
2023-03-30T15:38:12.540Z,17.08
2023-03-30T15:40:58.157Z,17.50
2023-03-30T15:44:09.151Z,20.20
2023-03-30T15:47:00.729Z,18.75
2023-03-30T15:49:49.835Z,21.50
2023-03-30T15:52:40.025Z,20.33
2023-03-30T15:55:33.420Z,24.25
2023-03-30T15:58:24.678Z,17.52
2023-03-30T16:01:14.190Z,32.47
2023-03-30T16:04:01.728Z,17.23
2023-03-30T16:06:47.858Z,19.40
2023-03-30T16:09:33.328Z,19.98
2023-03-30T16:12:26.055Z,16.65
2023-03-30T16:15:18.583Z,23.13
2023-03-30T16:18:03.906Z,19.23
2023-03-30T16:20:49.445Z,16.02
2023-03-30T16:23:35.174Z,19.42
2023-03-30T16:26:20.994Z,19.25
2023-03-30T16:29:18.430Z,17.55
2023-03-30T16:32:04.751Z,17.45
2023-03-30T16:34:49.916Z,16.65
2023-03-30T16:37:36.029Z,19.17
2023-03-30T16:40:38.439Z,14.75
2023-03-30T16:43:25.940Z,16.25
2023-03-30T16:46:14.374Z,16.20
2023-03-30T16:48:59.815Z,23.70
2023-03-30T16:51:45.388Z,19.35
2023-03-30T16:54:32.620Z,19.52
2023-03-30T16:57:18.967Z,15.52
2023-03-30T17:00:21.043Z,14.07
2023-03-30T17:03:06.907Z,18.92
2023-03-30T17:05:52.198Z,12.82
2023-03-30T17:08:37.697Z,20.02
2023-03-30T17:11:23.181Z,13.35
2023-03-30T17:14:08.747Z,15.88
2023-03-30T17:16:54.665Z,12.45
2023-03-30T17:19:40.723Z,12.93
2023-03-30T17:22:26.363Z,13.23
2023-03-30T17:25:12.448Z,12.23
2023-03-30T17:27:58.244Z,13.15
2023-03-30T17:30:43.759Z,14.70
2023-03-30T17:33:31.730Z,18.10
2023-03-30T17:36:21.370Z,14.80
2023-03-30T17:39:07.194Z,14.30
2023-03-30T17:41:53.601Z,12.35
2023-03-30T17:44:39.039Z,14.38
2023-03-30T17:47:24.571Z,15.15
2023-03-30T17:50:18.523Z,16.08
2023-03-30T17:53:04.239Z,19.45
2023-03-30T17:55:52.915Z,13.10
2023-03-30T17:58:37.943Z,15.57
2023-03-30T18:01:23.487Z,14.32
2023-03-30T18:04:09.514Z,9.57
2023-03-30T18:06:54.773Z,10.50
2023-03-30T18:09:40.225Z,15.63
2023-03-30T18:12:25.709Z,12.60
2023-03-30T18:15:11.792Z,11.50
2023-03-30T18:17:58.675Z,9.15
2023-03-30T18:20:44.170Z,15.15
2023-03-30T18:23:30.500Z,17.40
2023-03-30T18:26:16.043Z,15.88
2023-03-30T18:29:01.603Z,16.55
2023-03-30T18:31:47.295Z,15.85
2023-03-30T18:34:32.972Z,11.45
2023-03-30T18:37:18.401Z,17.13
2023-03-30T18:40:09.444Z,14.77
2023-03-30T18:42:55.924Z,15.40
2023-03-30T18:45:44.939Z,21.73
2023-03-30T18:48:30.834Z,14.57
2023-03-30T18:51:16.040Z,15.13
2023-03-30T18:54:01.394Z,15.25
2023-03-30T18:56:47.839Z,18.15
2023-03-30T18:59:33.444Z,13.05
2023-03-30T19:02:19.336Z,15.82
2023-03-30T19:05:05.613Z,17.50
2023-03-30T19:07:51.489Z,17.08
2023-03-30T19:10:38.621Z,20.02
2023-03-30T19:13:25.262Z,20.60
2023-03-30T19:16:11.252Z,18.17
2023-03-30T19:18:57.313Z,11.88
2023-03-30T19:21:43.236Z,15.32
2023-03-30T19:24:28.689Z,19.13
2023-03-30T19:27:14.213Z,18.45
2023-03-30T19:29:59.726Z,17.92
2023-03-30T19:32:46.082Z,17.83
2023-03-30T19:35:32.336Z,21.63
2023-03-30T19:38:17.743Z,21.45
2023-03-30T19:41:05.020Z,19.08
2023-03-30T19:43:51.097Z,17.30
2023-03-30T19:46:38.660Z,19.08
2023-03-30T19:49:24.258Z,23.80
2023-03-30T19:52:09.820Z,20.58
2023-03-30T19:54:55.467Z,25.23
2023-03-30T19:57:41.431Z,25.17
2023-03-30T20:00:27.036Z,20.02
2023-03-30T20:03:14.017Z,27.90
2023-03-30T20:05:59.432Z,25.83
2023-03-30T20:08:45.353Z,17.85
2023-03-30T20:11:30.985Z,22.73
2023-03-30T20:14:16.826Z,19.80
2023-03-30T20:17:02.713Z,21.58
2023-03-30T20:19:48.381Z,18.00
2023-03-30T20:22:35.342Z,18.58
2023-03-30T20:25:21.564Z,19.25
2023-03-30T20:28:07.002Z,21.70
2023-03-30T20:30:56.196Z,19.85
2023-03-30T20:33:41.842Z,15.25
2023-03-30T20:36:30.265Z,15.00
2023-03-30T20:39:16.243Z,19.17
2023-03-30T20:42:02.006Z,22.67
2023-03-30T20:44:50.030Z,17.55
2023-03-30T20:47:35.914Z,19.58
2023-03-30T20:50:22.021Z,16.25
2023-03-30T20:53:07.330Z,20.17
2023-03-30T20:55:52.721Z,16.50
2023-03-30T20:58:39.713Z,26.35
2023-03-30T21:01:28.135Z,22.80
2023-03-30T21:04:13.885Z,16.42
2023-03-30T21:06:59.429Z,18.33
2023-03-30T21:09:44.964Z,14.82
2023-03-30T21:12:30.714Z,18.33
2023-03-30T21:15:17.083Z,21.58
2023-03-30T21:18:02.198Z,17.98
2023-03-30T21:20:47.580Z,30.10
2023-03-30T21:23:34.159Z,26.88
2023-03-30T21:26:19.782Z,27.30
2023-03-30T21:29:05.555Z,21.63
2023-03-30T21:31:51.263Z,30.77
2023-03-30T21:34:36.668Z,29.17
2023-03-30T21:37:22.125Z,28.55
2023-03-30T21:40:08.657Z,29.65
2023-03-30T21:42:54.018Z,18.17
2023-03-30T21:45:39.471Z,21.55
2023-03-30T21:48:26.930Z,28.38
2023-03-30T21:51:13.706Z,23.67
2023-03-30T21:53:59.550Z,21.92
2023-03-30T21:56:45.927Z,22.15
2023-03-30T21:59:31.132Z,26.77
2023-03-30T22:02:16.944Z,19.50
2023-03-30T22:05:02.263Z,23.17
2023-03-30T22:07:47.647Z,24.88
2023-03-30T22:10:33.149Z,15.70
2023-03-30T22:13:18.449Z,18.20
2023-03-30T22:16:13.301Z,24.27
2023-03-30T22:18:58.664Z,15.73
2023-03-30T22:21:44.072Z,11.10
2023-03-30T22:24:29.328Z,15.57
2023-03-30T22:27:16.351Z,14.07
2023-03-30T22:30:03.632Z,14.77
2023-03-30T22:32:49.205Z,25.80
2023-03-30T22:35:38.860Z,21.02
2023-03-30T22:38:23.833Z,15.90
2023-03-30T22:41:10.142Z,19.17
2023-03-30T22:43:57.749Z,20.65
2023-03-30T22:46:42.961Z,15.65
2023-03-30T22:49:29.974Z,21.95
2023-03-30T22:52:15.513Z,17.48
2023-03-30T22:55:01.071Z,18.00
2023-03-30T22:57:46.894Z,12.05
2023-03-30T23:00:31.936Z,16.95
2023-03-30T23:03:17.766Z,14.90
2023-03-30T23:06:03.772Z,22.25
2023-03-30T23:08:49.541Z,18.02
2023-03-30T23:11:35.524Z,13.23
2023-03-30T23:14:21.748Z,12.93
2023-03-30T23:17:08.974Z,15.85
2023-03-30T23:19:54.354Z,12.23
2023-03-30T23:22:39.746Z,14.50
2023-03-30T23:25:25.288Z,11.50
2023-03-30T23:28:10.776Z,16.70
2023-03-30T23:30:57.644Z,10.48
2023-03-30T23:33:43.698Z,12.73
2023-03-30T23:36:28.931Z,14.75
2023-03-30T23:39:14.318Z,13.73
2023-03-30T23:41:59.908Z,10.50
2023-03-30T23:44:45.419Z,17.25
2023-03-30T23:47:30.686Z,15.40
2023-03-30T23:50:17.053Z,13.15
2023-03-30T23:53:02.446Z,12.68
2023-03-30T23:55:50.085Z,15.05
2023-03-30T23:58:35.426Z,14.80
